sensor_id;sensor_type;location;lat;lon;timestamp;P1;durP1;ratioP1;P2;durP2;ratioP2
14381;SDS011;7275;50.328;8.720;2022-07-23T00:01:06;4.47;;;4.07;;
14381;SDS011;7275;50.328;8.720;2022-07-23T00:03:33;4.67;;;3.90;;
14381;SDS011;7275;50.328;8.720;2022-07-23T00:06:01;4.47;;;3.73;;
14381;SDS011;7275;50.328;8.720;2022-07-23T00:08:36;4.30;;;3.90;;
14381;SDS011;7275;50.328;8.720;2022-07-23T00:11:03;4.20;;;3.90;;
14381;SDS011;7275;50.328;8.720;2022-07-23T00:13:31;4.00;;;3.60;;
14381;SDS011;7275;50.328;8.720;2022-07-23T00:15:59;4.70;;;4.13;;
14381;SDS011;7275;50.328;8.720;2022-07-23T00:18:26;4.07;;;3.77;;
14381;SDS011;7275;50.328;8.720;2022-07-23T00:20:54;4.57;;;4.17;;
14381;SDS011;7275;50.328;8.720;2022-07-23T00:23:21;4.00;;;3.70;;
14381;SDS011;7275;50.328;8.720;2022-07-23T00:25:52;4.10;;;3.70;;
14381;SDS011;7275;50.328;8.720;2022-07-23T00:28:19;4.90;;;4.23;;
14381;SDS011;7275;50.328;8.720;2022-07-23T00:30:47;4.17;;;3.80;;
14381;SDS011;7275;50.328;8.720;2022-07-23T00:33:15;4.60;;;4.20;;
14381;SDS011;7275;50.328;8.720;2022-07-23T00:35:42;5.10;;;4.10;;
14381;SDS011;7275;50.328;8.720;2022-07-23T00:38:10;4.60;;;4.20;;
14381;SDS011;7275;50.328;8.720;2022-07-23T00:40:38;5.27;;;4.77;;
14381;SDS011;7275;50.328;8.720;2022-07-23T00:43:08;4.60;;;4.20;;
14381;SDS011;7275;50.328;8.720;2022-07-23T00:45:35;4.77;;;4.30;;
14381;SDS011;7275;50.328;8.720;2022-07-23T00:48:03;4.67;;;4.17;;
14381;SDS011;7275;50.328;8.720;2022-07-23T00:50:31;5.50;;;4.50;;
14381;SDS011;7275;50.328;8.720;2022-07-23T00:52:58;5.10;;;4.60;;
14381;SDS011;7275;50.328;8.720;2022-07-23T00:55:26;4.50;;;4.10;;
14381;SDS011;7275;50.328;8.720;2022-07-23T00:57:53;4.90;;;4.50;;
14381;SDS011;7275;50.328;8.720;2022-07-23T01:00:23;4.93;;;4.43;;
14381;SDS011;7275;50.328;8.720;2022-07-23T01:02:51;5.37;;;4.87;;
14381;SDS011;7275;50.328;8.720;2022-07-23T01:05:19;5.33;;;4.80;;
14381;SDS011;7275;50.328;8.720;2022-07-23T01:07:48;4.90;;;4.40;;
14381;SDS011;7275;50.328;8.720;2022-07-23T01:10:21;4.87;;;4.47;;
14381;SDS011;7275;50.328;8.720;2022-07-23T01:12:58;5.37;;;4.77;;
14381;SDS011;7275;50.328;8.720;2022-07-23T01:15:27;4.77;;;4.37;;
14381;SDS011;7275;50.328;8.720;2022-07-23T01:17:55;5.27;;;4.77;;
14381;SDS011;7275;50.328;8.720;2022-07-23T01:20:23;5.60;;;4.20;;
14381;SDS011;7275;50.328;8.720;2022-07-23T01:22:52;5.00;;;4.60;;
14381;SDS011;7275;50.328;8.720;2022-07-23T01:25:20;4.97;;;4.53;;
14381;SDS011;7275;50.328;8.720;2022-07-23T01:27:47;5.63;;;4.47;;
14381;SDS011;7275;50.328;8.720;2022-07-23T01:30:15;5.57;;;4.97;;
14381;SDS011;7275;50.328;8.720;2022-07-23T01:32:43;6.43;;;4.63;;
14381;SDS011;7275;50.328;8.720;2022-07-23T01:35:11;5.77;;;4.50;;
14381;SDS011;7275;50.328;8.720;2022-07-23T01:37:38;5.20;;;4.70;;
14381;SDS011;7275;50.328;8.720;2022-07-23T01:40:07;4.53;;;4.13;;
14381;SDS011;7275;50.328;8.720;2022-07-23T01:42:35;4.73;;;4.30;;
14381;SDS011;7275;50.328;8.720;2022-07-23T01:45:04;4.73;;;4.33;;
14381;SDS011;7275;50.328;8.720;2022-07-23T01:47:32;4.43;;;4.03;;
14381;SDS011;7275;50.328;8.720;2022-07-23T01:50:00;4.77;;;4.37;;
14381;SDS011;7275;50.328;8.720;2022-07-23T01:52:27;4.60;;;4.20;;
14381;SDS011;7275;50.328;8.720;2022-07-23T01:54:55;5.50;;;4.90;;
14381;SDS011;7275;50.328;8.720;2022-07-23T01:57:24;4.80;;;4.40;;
14381;SDS011;7275;50.328;8.720;2022-07-23T01:59:51;4.43;;;4.10;;
14381;SDS011;7275;50.328;8.720;2022-07-23T02:02:19;4.93;;;4.37;;
14381;SDS011;7275;50.328;8.720;2022-07-23T02:04:46;5.10;;;4.60;;
14381;SDS011;7275;50.328;8.720;2022-07-23T02:07:14;5.27;;;4.60;;
14381;SDS011;7275;50.328;8.720;2022-07-23T02:09:42;4.83;;;4.43;;
14381;SDS011;7275;50.328;8.720;2022-07-23T02:12:09;5.30;;;4.73;;
14381;SDS011;7275;50.328;8.720;2022-07-23T02:14:38;5.03;;;4.53;;
14381;SDS011;7275;50.328;8.720;2022-07-23T02:17:06;4.57;;;4.17;;
14381;SDS011;7275;50.328;8.720;2022-07-23T02:19:33;4.60;;;4.20;;
14381;SDS011;7275;50.328;8.720;2022-07-23T02:22:01;4.70;;;4.30;;
14381;SDS011;7275;50.328;8.720;2022-07-23T02:24:28;4.80;;;4.40;;
14381;SDS011;7275;50.328;8.720;2022-07-23T02:26:56;4.70;;;4.30;;
14381;SDS011;7275;50.328;8.720;2022-07-23T02:29:24;4.33;;;3.93;;
14381;SDS011;7275;50.328;8.720;2022-07-23T02:31:52;5.17;;;4.50;;
14381;SDS011;7275;50.328;8.720;2022-07-23T02:34:20;5.23;;;4.00;;
14381;SDS011;7275;50.328;8.720;2022-07-23T02:36:47;4.70;;;4.30;;
14381;SDS011;7275;50.328;8.720;2022-07-23T02:39:15;4.53;;;4.13;;
14381;SDS011;7275;50.328;8.720;2022-07-23T02:41:42;4.70;;;4.30;;
14381;SDS011;7275;50.328;8.720;2022-07-23T02:44:10;5.03;;;4.57;;
14381;SDS011;7275;50.328;8.720;2022-07-23T02:46:37;5.20;;;4.70;;
14381;SDS011;7275;50.328;8.720;2022-07-23T02:49:06;4.87;;;4.47;;
14381;SDS011;7275;50.328;8.720;2022-07-23T02:51:34;4.80;;;4.40;;
14381;SDS011;7275;50.328;8.720;2022-07-23T02:54:01;5.57;;;5.07;;
14381;SDS011;7275;50.328;8.720;2022-07-23T02:56:29;5.30;;;4.80;;
14381;SDS011;7275;50.328;8.720;2022-07-23T02:58:57;4.73;;;4.33;;
14381;SDS011;7275;50.328;8.720;2022-07-23T03:01:25;4.87;;;4.47;;
14381;SDS011;7275;50.328;8.720;2022-07-23T03:03:52;4.87;;;4.47;;
14381;SDS011;7275;50.328;8.720;2022-07-23T03:06:21;5.00;;;4.60;;
14381;SDS011;7275;50.328;8.720;2022-07-23T03:08:49;5.73;;;5.10;;
14381;SDS011;7275;50.328;8.720;2022-07-23T03:11:17;5.60;;;5.10;;
14381;SDS011;7275;50.328;8.720;2022-07-23T03:13:44;5.73;;;5.13;;
14381;SDS011;7275;50.328;8.720;2022-07-23T03:16:12;5.37;;;4.87;;
14381;SDS011;7275;50.328;8.720;2022-07-23T03:18:40;5.73;;;5.13;;
14381;SDS011;7275;50.328;8.720;2022-07-23T03:21:08;6.13;;;5.57;;
14381;SDS011;7275;50.328;8.720;2022-07-23T03:23:37;5.83;;;5.27;;
14381;SDS011;7275;50.328;8.720;2022-07-23T03:26:05;4.90;;;4.50;;
14381;SDS011;7275;50.328;8.720;2022-07-23T03:28:32;5.40;;;4.90;;
14381;SDS011;7275;50.328;8.720;2022-07-23T03:31:00;5.73;;;5.23;;
14381;SDS011;7275;50.328;8.720;2022-07-23T03:33:27;6.50;;;5.90;;
14381;SDS011;7275;50.328;8.720;2022-07-23T03:35:55;5.53;;;5.03;;
14381;SDS011;7275;50.328;8.720;2022-07-23T03:38:22;6.10;;;5.50;;
14381;SDS011;7275;50.328;8.720;2022-07-23T03:40:51;5.43;;;4.93;;
14381;SDS011;7275;50.328;8.720;2022-07-23T03:43:19;6.33;;;5.73;;
14381;SDS011;7275;50.328;8.720;2022-07-23T03:45:46;5.80;;;5.30;;
14381;SDS011;7275;50.328;8.720;2022-07-23T03:48:14;5.70;;;5.20;;
14381;SDS011;7275;50.328;8.720;2022-07-23T03:50:41;6.03;;;5.33;;
14381;SDS011;7275;50.328;8.720;2022-07-23T03:53:09;5.80;;;5.30;;
14381;SDS011;7275;50.328;8.720;2022-07-23T03:55:36;5.90;;;5.40;;
14381;SDS011;7275;50.328;8.720;2022-07-23T03:58:05;6.37;;;5.77;;
14381;SDS011;7275;50.328;8.720;2022-07-23T04:00:33;6.13;;;5.57;;
14381;SDS011;7275;50.328;8.720;2022-07-23T04:03:00;5.50;;;5.00;;
14381;SDS011;7275;50.328;8.720;2022-07-23T04:05:28;6.00;;;5.43;;
14381;SDS011;7275;50.328;8.720;2022-07-23T04:07:55;6.43;;;5.83;;
14381;SDS011;7275;50.328;8.720;2022-07-23T04:10:23;6.47;;;5.83;;
14381;SDS011;7275;50.328;8.720;2022-07-23T04:12:50;6.40;;;5.80;;
14381;SDS011;7275;50.328;8.720;2022-07-23T04:15:19;6.20;;;5.67;;
14381;SDS011;7275;50.328;8.720;2022-07-23T04:17:47;6.30;;;5.70;;
14381;SDS011;7275;50.328;8.720;2022-07-23T04:20:14;6.83;;;6.20;;
14381;SDS011;7275;50.328;8.720;2022-07-23T04:22:42;7.20;;;6.50;;
14381;SDS011;7275;50.328;8.720;2022-07-23T04:25:11;7.53;;;6.83;;
14381;SDS011;7275;50.328;8.720;2022-07-23T04:27:39;6.83;;;6.13;;
14381;SDS011;7275;50.328;8.720;2022-07-23T04:30:08;7.53;;;6.43;;
14381;SDS011;7275;50.328;8.720;2022-07-23T04:32:37;6.97;;;6.10;;
14381;SDS011;7275;50.328;8.720;2022-07-23T04:35:05;6.60;;;5.97;;
14381;SDS011;7275;50.328;8.720;2022-07-23T04:37:34;7.30;;;6.60;;
14381;SDS011;7275;50.328;8.720;2022-07-23T04:40:01;7.33;;;6.63;;
14381;SDS011;7275;50.328;8.720;2022-07-23T04:42:29;7.27;;;6.57;;
14381;SDS011;7275;50.328;8.720;2022-07-23T04:44:57;6.83;;;6.13;;
14381;SDS011;7275;50.328;8.720;2022-07-23T04:47:24;8.77;;;6.80;;
14381;SDS011;7275;50.328;8.720;2022-07-23T04:49:55;7.50;;;6.80;;
14381;SDS011;7275;50.328;8.720;2022-07-23T04:52:22;8.40;;;6.77;;
14381;SDS011;7275;50.328;8.720;2022-07-23T04:54:50;7.70;;;6.87;;
14381;SDS011;7275;50.328;8.720;2022-07-23T04:57:18;7.97;;;7.17;;
14381;SDS011;7275;50.328;8.720;2022-07-23T04:59:45;7.07;;;6.37;;
14381;SDS011;7275;50.328;8.720;2022-07-23T05:02:13;6.90;;;6.23;;
14381;SDS011;7275;50.328;8.720;2022-07-23T05:04:40;6.90;;;6.30;;
14381;SDS011;7275;50.328;8.720;2022-07-23T05:07:09;6.97;;;6.27;;
14381;SDS011;7275;50.328;8.720;2022-07-23T05:09:36;6.70;;;6.10;;
14381;SDS011;7275;50.328;8.720;2022-07-23T05:12:04;7.33;;;6.60;;
14381;SDS011;7275;50.328;8.720;2022-07-23T05:14:32;7.20;;;6.50;;
14381;SDS011;7275;50.328;8.720;2022-07-23T05:16:59;7.37;;;6.67;;
14381;SDS011;7275;50.328;8.720;2022-07-23T05:19:27;7.23;;;6.53;;
14381;SDS011;7275;50.328;8.720;2022-07-23T05:21:55;6.70;;;6.00;;
14381;SDS011;7275;50.328;8.720;2022-07-23T05:24:23;7.23;;;6.20;;
14381;SDS011;7275;50.328;8.720;2022-07-23T05:26:51;6.53;;;5.93;;
14381;SDS011;7275;50.328;8.720;2022-07-23T05:29:19;6.80;;;6.10;;
14381;SDS011;7275;50.328;8.720;2022-07-23T05:31:47;6.63;;;6.03;;
14381;SDS011;7275;50.328;8.720;2022-07-23T05:34:14;7.23;;;6.27;;
14381;SDS011;7275;50.328;8.720;2022-07-23T05:36:43;7.07;;;6.37;;
14381;SDS011;7275;50.328;8.720;2022-07-23T05:39:11;6.47;;;5.63;;
14381;SDS011;7275;50.328;8.720;2022-07-23T05:41:39;7.67;;;6.13;;
14381;SDS011;7275;50.328;8.720;2022-07-23T05:44:08;6.60;;;6.00;;
14381;SDS011;7275;50.328;8.720;2022-07-23T05:46:36;5.73;;;5.23;;
14381;SDS011;7275;50.328;8.720;2022-07-23T05:49:03;6.50;;;5.90;;
14381;SDS011;7275;50.328;8.720;2022-07-23T05:51:32;5.63;;;5.13;;
14381;SDS011;7275;50.328;8.720;2022-07-23T05:54:00;9.87;;;6.17;;
14381;SDS011;7275;50.328;8.720;2022-07-23T05:56:27;6.37;;;5.77;;
14381;SDS011;7275;50.328;8.720;2022-07-23T05:58:57;6.40;;;5.80;;
14381;SDS011;7275;50.328;8.720;2022-07-23T06:01:25;5.73;;;5.13;;
14381;SDS011;7275;50.328;8.720;2022-07-23T06:03:53;5.70;;;5.13;;
14381;SDS011;7275;50.328;8.720;2022-07-23T06:06:20;6.30;;;5.20;;
14381;SDS011;7275;50.328;8.720;2022-07-23T06:08:48;6.03;;;5.50;;
14381;SDS011;7275;50.328;8.720;2022-07-23T06:11:16;6.17;;;5.53;;
14381;SDS011;7275;50.328;8.720;2022-07-23T06:13:43;6.30;;;5.70;;
14381;SDS011;7275;50.328;8.720;2022-07-23T06:16:12;5.80;;;5.20;;
14381;SDS011;7275;50.328;8.720;2022-07-23T06:18:40;6.10;;;4.87;;
14381;SDS011;7275;50.328;8.720;2022-07-23T06:21:07;5.60;;;5.10;;
14381;SDS011;7275;50.328;8.720;2022-07-23T06:23:55;5.30;;;4.80;;
14381;SDS011;7275;50.328;8.720;2022-07-23T06:26:22;5.40;;;4.90;;
14381;SDS011;7275;50.328;8.720;2022-07-23T06:28:50;5.10;;;4.60;;
14381;SDS011;7275;50.328;8.720;2022-07-23T06:31:18;6.53;;;4.53;;
14381;SDS011;7275;50.328;8.720;2022-07-23T06:33:46;4.93;;;4.53;;
14381;SDS011;7275;50.328;8.720;2022-07-23T06:36:14;4.80;;;4.30;;
14381;SDS011;7275;50.328;8.720;2022-07-23T06:38:41;4.80;;;4.10;;
14381;SDS011;7275;50.328;8.720;2022-07-23T06:41:10;4.90;;;4.50;;
14381;SDS011;7275;50.328;8.720;2022-07-23T06:43:38;4.73;;;4.33;;
14381;SDS011;7275;50.328;8.720;2022-07-23T06:46:05;4.57;;;3.90;;
14381;SDS011;7275;50.328;8.720;2022-07-23T06:48:34;4.90;;;4.17;;
14381;SDS011;7275;50.328;8.720;2022-07-23T06:51:03;4.57;;;4.18;;
14381;SDS011;7275;50.328;8.720;2022-07-23T06:53:31;5.80;;;3.85;;
14381;SDS011;7275;50.328;8.720;2022-07-23T06:55:58;3.90;;;3.50;;
14381;SDS011;7275;50.328;8.720;2022-07-23T06:58:26;4.20;;;3.80;;
14381;SDS011;7275;50.328;8.720;2022-07-23T07:00:54;4.35;;;3.90;;
14381;SDS011;7275;50.328;8.720;2022-07-23T07:03:23;4.32;;;3.92;;
14381;SDS011;7275;50.328;8.720;2022-07-23T07:05:52;4.97;;;3.97;;
14381;SDS011;7275;50.328;8.720;2022-07-23T07:08:19;4.38;;;3.70;;
14381;SDS011;7275;50.328;8.720;2022-07-23T07:10:47;5.03;;;4.13;;
14381;SDS011;7275;50.328;8.720;2022-07-23T07:13:14;4.15;;;3.75;;
14381;SDS011;7275;50.328;8.720;2022-07-23T07:15:42;4.45;;;3.67;;
14381;SDS011;7275;50.328;8.720;2022-07-23T07:18:09;4.07;;;3.60;;
14381;SDS011;7275;50.328;8.720;2022-07-23T07:20:37;3.70;;;3.40;;
14381;SDS011;7275;50.328;8.720;2022-07-23T07:23:06;3.67;;;3.20;;
14381;SDS011;7275;50.328;8.720;2022-07-23T07:25:33;3.90;;;3.60;;
14381;SDS011;7275;50.328;8.720;2022-07-23T07:28:01;3.47;;;3.17;;
14381;SDS011;7275;50.328;8.720;2022-07-23T07:30:29;3.90;;;3.50;;
14381;SDS011;7275;50.328;8.720;2022-07-23T07:32:59;4.07;;;3.40;;
14381;SDS011;7275;50.328;8.720;2022-07-23T07:35:27;4.15;;;3.47;;
14381;SDS011;7275;50.328;8.720;2022-07-23T07:37:55;3.65;;;3.35;;
14381;SDS011;7275;50.328;8.720;2022-07-23T07:40:23;3.67;;;3.33;;
14381;SDS011;7275;50.328;8.720;2022-07-23T07:42:59;3.35;;;3.05;;
14381;SDS011;7275;50.328;8.720;2022-07-23T07:45:27;3.47;;;3.17;;
14381;SDS011;7275;50.328;8.720;2022-07-23T07:47:55;3.70;;;3.28;;
14381;SDS011;7275;50.328;8.720;2022-07-23T07:50:23;3.92;;;3.55;;
14381;SDS011;7275;50.328;8.720;2022-07-23T07:52:51;4.00;;;3.53;;
14381;SDS011;7275;50.328;8.720;2022-07-23T07:55:19;3.90;;;3.60;;
14381;SDS011;7275;50.328;8.720;2022-07-23T07:57:48;3.88;;;3.47;;
14381;SDS011;7275;50.328;8.720;2022-07-23T08:00:16;3.65;;;3.35;;
14381;SDS011;7275;50.328;8.720;2022-07-23T08:02:46;3.40;;;3.10;;
14381;SDS011;7275;50.328;8.720;2022-07-23T08:05:18;3.70;;;3.40;;
14381;SDS011;7275;50.328;8.720;2022-07-23T08:07:52;3.88;;;3.35;;
14381;SDS011;7275;50.328;8.720;2022-07-23T08:10:21;3.65;;;3.35;;
14381;SDS011;7275;50.328;8.720;2022-07-23T08:12:50;5.28;;;3.85;;
14381;SDS011;7275;50.328;8.720;2022-07-23T08:15:19;4.07;;;3.67;;
14381;SDS011;7275;50.328;8.720;2022-07-23T08:17:48;3.88;;;3.47;;
14381;SDS011;7275;50.328;8.720;2022-07-23T08:20:17;3.67;;;3.38;;
14381;SDS011;7275;50.328;8.720;2022-07-23T08:22:49;3.72;;;3.42;;
14381;SDS011;7275;50.328;8.720;2022-07-23T08:25:19;4.15;;;3.70;;
14381;SDS011;7275;50.328;8.720;2022-07-23T08:27:50;3.58;;;3.28;;
14381;SDS011;7275;50.328;8.720;2022-07-23T08:30:17;3.80;;;3.47;;
14381;SDS011;7275;50.328;8.720;2022-07-23T08:32:49;3.50;;;3.20;;
14381;SDS011;7275;50.328;8.720;2022-07-23T08:35:18;3.55;;;3.22;;
14381;SDS011;7275;50.328;8.720;2022-07-23T08:37:49;3.22;;;2.92;;
14381;SDS011;7275;50.328;8.720;2022-07-23T08:40:17;3.88;;;2.97;;
14381;SDS011;7275;50.328;8.720;2022-07-23T08:42:46;4.47;;;3.38;;
14381;SDS011;7275;50.328;8.720;2022-07-23T08:45:17;3.80;;;3.50;;
14381;SDS011;7275;50.328;8.720;2022-07-23T08:47:47;3.63;;;3.33;;
14381;SDS011;7275;50.328;8.720;2022-07-23T08:50:19;3.88;;;3.47;;
14381;SDS011;7275;50.328;8.720;2022-07-23T08:52:47;3.97;;;3.50;;
14381;SDS011;7275;50.328;8.720;2022-07-23T08:55:16;12.32;;;3.95;;
14381;SDS011;7275;50.328;8.720;2022-07-23T08:57:44;3.47;;;3.17;;
14381;SDS011;7275;50.328;8.720;2022-07-23T09:00:13;3.30;;;2.88;;
14381;SDS011;7275;50.328;8.720;2022-07-23T09:02:43;3.10;;;2.80;;
14381;SDS011;7275;50.328;8.720;2022-07-23T09:05:12;3.33;;;3.13;;
14381;SDS011;7275;50.328;8.720;2022-07-23T09:10:46;3.13;;;2.83;;
14381;SDS011;7275;50.328;8.720;2022-07-23T09:13:23;4.25;;;3.30;;
14381;SDS011;7275;50.328;8.720;2022-07-23T09:15:57;3.50;;;3.20;;
14381;SDS011;7275;50.328;8.720;2022-07-23T09:18:30;3.38;;;2.97;;
14381;SDS011;7275;50.328;8.720;2022-07-23T09:21:09;3.30;;;3.00;;
14381;SDS011;7275;50.328;8.720;2022-07-23T09:23:39;3.17;;;2.88;;
14381;SDS011;7275;50.328;8.720;2022-07-23T09:26:16;3.42;;;3.13;;
14381;SDS011;7275;50.328;8.720;2022-07-23T09:28:50;3.33;;;3.03;;
14381;SDS011;7275;50.328;8.720;2022-07-23T09:31:20;2.85;;;2.65;;
14381;SDS011;7275;50.328;8.720;2022-07-23T09:33:49;3.13;;;2.80;;
14381;SDS011;7275;50.328;8.720;2022-07-23T09:36:26;3.00;;;2.80;;
14381;SDS011;7275;50.328;8.720;2022-07-23T09:38:55;2.75;;;2.55;;
14381;SDS011;7275;50.328;8.720;2022-07-23T09:41:23;3.00;;;2.70;;
14381;SDS011;7275;50.328;8.720;2022-07-23T09:43:54;3.20;;;2.90;;
14381;SDS011;7275;50.328;8.720;2022-07-23T09:46:24;2.78;;;2.58;;
14381;SDS011;7275;50.328;8.720;2022-07-23T09:48:55;2.50;;;2.30;;
14381;SDS011;7275;50.328;8.720;2022-07-23T09:51:24;2.60;;;2.40;;
14381;SDS011;7275;50.328;8.720;2022-07-23T09:53:58;2.38;;;2.17;;
14381;SDS011;7275;50.328;8.720;2022-07-23T09:56:26;2.63;;;2.42;;
14381;SDS011;7275;50.328;8.720;2022-07-23T09:58:55;2.50;;;2.30;;
14381;SDS011;7275;50.328;8.720;2022-07-23T10:01:30;2.20;;;2.10;;
14381;SDS011;7275;50.328;8.720;2022-07-23T10:04:00;2.38;;;2.17;;
14381;SDS011;7275;50.328;8.720;2022-07-23T10:06:30;2.55;;;2.35;;
14381;SDS011;7275;50.328;8.720;2022-07-23T10:08:58;2.70;;;2.50;;
14381;SDS011;7275;50.328;8.720;2022-07-23T10:11:28;2.80;;;2.60;;
14381;SDS011;7275;50.328;8.720;2022-07-23T10:13:58;2.72;;;2.53;;
14381;SDS011;7275;50.328;8.720;2022-07-23T10:16:28;2.58;;;2.38;;
14381;SDS011;7275;50.328;8.720;2022-07-23T10:18:56;2.72;;;2.35;;
14381;SDS011;7275;50.328;8.720;2022-07-23T10:21:27;2.60;;;2.40;;
14381;SDS011;7275;50.328;8.720;2022-07-23T10:24:05;2.55;;;2.35;;
14381;SDS011;7275;50.328;8.720;2022-07-23T10:26:41;2.67;;;2.15;;
14381;SDS011;7275;50.328;8.720;2022-07-23T10:29:21;3.05;;;2.75;;
14381;SDS011;7275;50.328;8.720;2022-07-23T10:31:58;2.58;;;2.38;;
14381;SDS011;7275;50.328;8.720;2022-07-23T10:34:34;2.60;;;2.40;;
14381;SDS011;7275;50.328;8.720;2022-07-23T10:37:14;2.50;;;2.30;;
14381;SDS011;7275;50.328;8.720;2022-07-23T10:39:47;2.60;;;2.40;;
14381;SDS011;7275;50.328;8.720;2022-07-23T10:42:16;2.60;;;2.40;;
14381;SDS011;7275;50.328;8.720;2022-07-23T10:44:44;2.65;;;2.45;;
14381;SDS011;7275;50.328;8.720;2022-07-23T10:47:20;2.60;;;2.40;;
14381;SDS011;7275;50.328;8.720;2022-07-23T10:50:19;2.50;;;2.30;;
14381;SDS011;7275;50.328;8.720;2022-07-23T10:55:42;2.65;;;2.45;;
14381;SDS011;7275;50.328;8.720;2022-07-23T10:58:16;2.80;;;2.60;;
14381;SDS011;7275;50.328;8.720;2022-07-23T11:00:47;2.70;;;2.50;;
14381;SDS011;7275;50.328;8.720;2022-07-23T11:03:29;3.20;;;2.90;;
14381;SDS011;7275;50.328;8.720;2022-07-23T11:06:04;2.58;;;2.38;;
14381;SDS011;7275;50.328;8.720;2022-07-23T11:08:33;2.78;;;2.53;;
14381;SDS011;7275;50.328;8.720;2022-07-23T11:11:08;3.03;;;2.55;;
14381;SDS011;7275;50.328;8.720;2022-07-23T11:13:39;2.92;;;2.58;;
14381;SDS011;7275;50.328;8.720;2022-07-23T11:16:12;3.00;;;2.70;;
14381;SDS011;7275;50.328;8.720;2022-07-23T11:21:48;2.70;;;2.50;;
14381;SDS011;7275;50.328;8.720;2022-07-23T11:24:19;2.60;;;2.40;;
14381;SDS011;7275;50.328;8.720;2022-07-23T11:26:54;2.97;;;2.70;;
14381;SDS011;7275;50.328;8.720;2022-07-23T11:29:39;3.03;;;2.70;;
14381;SDS011;7275;50.328;8.720;2022-07-23T11:35:20;2.80;;;2.60;;
14381;SDS011;7275;50.328;8.720;2022-07-23T11:37:53;2.72;;;2.47;;
14381;SDS011;7275;50.328;8.720;2022-07-23T11:40:30;2.90;;;2.70;;
14381;SDS011;7275;50.328;8.720;2022-07-23T11:42:59;4.63;;;2.50;;
14381;SDS011;7275;50.328;8.720;2022-07-23T11:45:30;2.72;;;2.53;;
14381;SDS011;7275;50.328;8.720;2022-07-23T11:47:59;3.25;;;2.60;;
14381;SDS011;7275;50.328;8.720;2022-07-23T11:50:27;3.00;;;2.60;;
14381;SDS011;7275;50.328;8.720;2022-07-23T11:52:55;3.00;;;2.80;;
14381;SDS011;7275;50.328;8.720;2022-07-23T11:55:23;3.20;;;2.90;;
14381;SDS011;7275;50.328;8.720;2022-07-23T11:57:53;3.85;;;2.80;;
14381;SDS011;7275;50.328;8.720;2022-07-23T12:00:22;3.00;;;2.80;;
14381;SDS011;7275;50.328;8.720;2022-07-23T12:02:51;2.85;;;2.65;;
14381;SDS011;7275;50.328;8.720;2022-07-23T12:05:22;3.10;;;2.90;;
14381;SDS011;7275;50.328;8.720;2022-07-23T12:07:51;3.70;;;3.40;;
14381;SDS011;7275;50.328;8.720;2022-07-23T12:10:20;3.55;;;3.22;;
14381;SDS011;7275;50.328;8.720;2022-07-23T12:12:49;3.17;;;2.97;;
14381;SDS011;7275;50.328;8.720;2022-07-23T12:15:20;3.20;;;3.00;;
14381;SDS011;7275;50.328;8.720;2022-07-23T12:17:50;2.97;;;2.78;;
14381;SDS011;7275;50.328;8.720;2022-07-23T12:20:20;5.75;;;2.92;;
14381;SDS011;7275;50.328;8.720;2022-07-23T12:22:51;3.58;;;3.28;;
14381;SDS011;7275;50.328;8.720;2022-07-23T12:25:21;3.65;;;3.35;;
14381;SDS011;7275;50.328;8.720;2022-07-23T12:27:58;3.28;;;2.97;;
14381;SDS011;7275;50.328;8.720;2022-07-23T12:30:30;3.45;;;3.15;;
14381;SDS011;7275;50.328;8.720;2022-07-23T12:33:00;3.72;;;3.13;;
14381;SDS011;7275;50.328;8.720;2022-07-23T12:35:33;3.15;;;2.95;;
14381;SDS011;7275;50.328;8.720;2022-07-23T12:38:04;3.30;;;3.00;;
14381;SDS011;7275;50.328;8.720;2022-07-23T12:40:33;3.33;;;3.03;;
14381;SDS011;7275;50.328;8.720;2022-07-23T12:43:03;3.25;;;2.97;;
14381;SDS011;7275;50.328;8.720;2022-07-23T12:45:47;3.60;;;2.95;;
14381;SDS011;7275;50.328;8.720;2022-07-23T12:48:17;3.00;;;2.80;;
14381;SDS011;7275;50.328;8.720;2022-07-23T12:50:49;3.00;;;2.80;;
14381;SDS011;7275;50.328;8.720;2022-07-23T12:53:19;3.20;;;3.00;;
14381;SDS011;7275;50.328;8.720;2022-07-23T12:55:50;3.00;;;2.80;;
14381;SDS011;7275;50.328;8.720;2022-07-23T12:58:42;3.38;;;3.08;;
14381;SDS011;7275;50.328;8.720;2022-07-23T13:01:27;3.30;;;3.00;;
14381;SDS011;7275;50.328;8.720;2022-07-23T13:04:02;3.15;;;2.90;;
14381;SDS011;7275;50.328;8.720;2022-07-23T13:06:40;3.25;;;2.95;;
14381;SDS011;7275;50.328;8.720;2022-07-23T13:09:11;3.97;;;2.83;;
14381;SDS011;7275;50.328;8.720;2022-07-23T13:11:40;3.10;;;2.80;;
14381;SDS011;7275;50.328;8.720;2022-07-23T13:14:08;2.92;;;2.72;;
14381;SDS011;7275;50.328;8.720;2022-07-23T13:16:39;3.50;;;3.28;;
14381;SDS011;7275;50.328;8.720;2022-07-23T13:19:08;3.78;;;3.03;;
14381;SDS011;7275;50.328;8.720;2022-07-23T13:21:37;3.40;;;3.10;;
14381;SDS011;7275;50.328;8.720;2022-07-23T13:24:06;4.35;;;3.20;;
14381;SDS011;7275;50.328;8.720;2022-07-23T13:26:35;2.92;;;2.72;;
14381;SDS011;7275;50.328;8.720;2022-07-23T13:29:03;3.53;;;3.22;;
14381;SDS011;7275;50.328;8.720;2022-07-23T13:31:34;3.38;;;3.08;;
14381;SDS011;7275;50.328;8.720;2022-07-23T13:34:05;2.95;;;2.75;;
14381;SDS011;7275;50.328;8.720;2022-07-23T13:36:33;3.47;;;3.00;;
14381;SDS011;7275;50.328;8.720;2022-07-23T13:39:02;3.30;;;3.00;;
14381;SDS011;7275;50.328;8.720;2022-07-23T13:41:34;3.75;;;3.30;;
14381;SDS011;7275;50.328;8.720;2022-07-23T13:44:02;3.50;;;3.20;;
14381;SDS011;7275;50.328;8.720;2022-07-23T13:46:30;3.03;;;2.83;;
14381;SDS011;7275;50.328;8.720;2022-07-23T13:48:58;3.10;;;2.90;;
14381;SDS011;7275;50.328;8.720;2022-07-23T13:51:28;3.10;;;2.90;;
14381;SDS011;7275;50.328;8.720;2022-07-23T13:53:56;3.40;;;3.10;;
14381;SDS011;7275;50.328;8.720;2022-07-23T13:56:25;2.92;;;2.72;;
14381;SDS011;7275;50.328;8.720;2022-07-23T13:58:52;5.47;;;3.22;;
14381;SDS011;7275;50.328;8.720;2022-07-23T14:01:20;3.60;;;3.30;;
14381;SDS011;7275;50.328;8.720;2022-07-23T14:03:48;3.72;;;3.08;;
14381;SDS011;7275;50.328;8.720;2022-07-23T14:06:15;3.30;;;3.08;;
14381;SDS011;7275;50.328;8.720;2022-07-23T14:08:55;3.30;;;3.00;;
14381;SDS011;7275;50.328;8.720;2022-07-23T14:11:23;3.33;;;3.08;;
14381;SDS011;7275;50.328;8.720;2022-07-23T14:13:50;3.50;;;3.20;;
14381;SDS011;7275;50.328;8.720;2022-07-23T14:16:18;3.47;;;3.17;;
14381;SDS011;7275;50.328;8.720;2022-07-23T14:18:46;3.28;;;3.08;;
14381;SDS011;7275;50.328;8.720;2022-07-23T14:21:13;4.22;;;3.00;;
14381;SDS011;7275;50.328;8.720;2022-07-23T14:23:41;3.15;;;2.95;;
14381;SDS011;7275;50.328;8.720;2022-07-23T14:26:10;3.25;;;2.80;;
14381;SDS011;7275;50.328;8.720;2022-07-23T14:28:40;3.40;;;3.10;;
14381;SDS011;7275;50.328;8.720;2022-07-23T14:31:08;3.42;;;3.13;;
14381;SDS011;7275;50.328;8.720;2022-07-23T14:33:46;3.17;;;2.88;;
14381;SDS011;7275;50.328;8.720;2022-07-23T14:36:14;4.18;;;3.40;;
14381;SDS011;7275;50.328;8.720;2022-07-23T14:38:42;3.40;;;2.85;;
14381;SDS011;7275;50.328;8.720;2022-07-23T14:41:11;3.08;;;2.83;;
14381;SDS011;7275;50.328;8.720;2022-07-23T14:43:41;2.90;;;2.70;;
14381;SDS011;7275;50.328;8.720;2022-07-23T14:46:10;3.10;;;2.80;;
14381;SDS011;7275;50.328;8.720;2022-07-23T14:48:39;3.05;;;2.75;;
14381;SDS011;7275;50.328;8.720;2022-07-23T14:51:07;3.10;;;2.67;;
14381;SDS011;7275;50.328;8.720;2022-07-23T14:53:34;3.58;;;2.80;;
14381;SDS011;7275;50.328;8.720;2022-07-23T14:56:02;3.10;;;2.90;;
14381;SDS011;7275;50.328;8.720;2022-07-23T14:58:32;2.88;;;2.67;;
14381;SDS011;7275;50.328;8.720;2022-07-23T15:01:03;2.50;;;2.30;;
14381;SDS011;7275;50.328;8.720;2022-07-23T15:03:30;2.60;;;2.40;;
14381;SDS011;7275;50.328;8.720;2022-07-23T15:06:08;2.65;;;2.45;;
14381;SDS011;7275;50.328;8.720;2022-07-23T15:08:37;2.78;;;2.58;;
14381;SDS011;7275;50.328;8.720;2022-07-23T15:11:05;3.20;;;2.53;;
14381;SDS011;7275;50.328;8.720;2022-07-23T15:13:36;2.67;;;2.47;;
14381;SDS011;7275;50.328;8.720;2022-07-23T15:16:05;3.17;;;2.38;;
14381;SDS011;7275;50.328;8.720;2022-07-23T15:18:36;2.70;;;2.50;;
14381;SDS011;7275;50.328;8.720;2022-07-23T15:21:04;2.58;;;2.38;;
14381;SDS011;7275;50.328;8.720;2022-07-23T15:23:33;2.58;;;2.38;;
14381;SDS011;7275;50.328;8.720;2022-07-23T15:26:02;2.80;;;2.50;;